Time;durP1;ratioP1;P1;durP2;ratioP2;P2;SDS_P1;SDS_P2;PMS_P1;PMS_P2;Temp;Humidity;BMP_temperature;BMP_pressure;BME280_temperature;BME280_humidity;BME280_pressure;Samples;Min_cycle;Max_cycle;Signal;HPM_P1;HPM_P2
2024/01/13 00:00:15;;;;;;;4.95;3.00;;;3.30;61.60;;;;;;4983412;28;20030;-80
2024/01/13 00:02:41;;;;;;;6.30;3.83;;;3.40;61.60;;;;;;4980527;28;20058;-80
2024/01/13 00:05:07;;;;;;;6.07;2.97;;;3.30;61.50;;;;;;4980467;28;20502;-80
2024/01/13 00:07:33;;;;;;;7.50;2.85;;;3.30;61.50;;;;;;4967678;28;20104;-79
2024/01/13 00:09:59;;;;;;;5.53;3.08;;;3.40;61.50;;;;;;4979192;28;20663;-80
2024/01/13 00:12:25;;;;;;;6.13;2.67;;;3.30;61.20;;;;;;4969561;28;20030;-80
2024/01/13 00:14:51;;;;;;;5.25;3.00;;;3.30;61.30;;;;;;4981043;28;20564;-81
2024/01/13 00:17:17;;;;;;;5.50;3.20;;;3.30;61.20;;;;;;4981532;28;20575;-80
2024/01/13 00:19:43;;;;;;;4.82;3.10;;;3.30;61.00;;;;;;4975533;28;20050;-79
2024/01/13 00:22:09;;;;;;;5.82;3.20;;;3.30;60.90;;;;;;4983849;28;20537;-80
2024/01/13 00:24:35;;;;;;;6.38;2.97;;;3.30;60.90;;;;;;4987734;28;20417;-80
2024/01/13 00:27:02;;;;;;;4.78;3.00;;;3.30;61.00;;;;;;4986824;28;20041;-80
2024/01/13 00:29:28;;;;;;;5.18;2.90;;;3.30;60.80;;;;;;4982917;28;20035;-80
2024/01/13 00:31:54;;;;;;;5.28;2.90;;;3.30;61.00;;;;;;4982107;28;20038;-80
2024/01/13 00:34:20;;;;;;;4.95;2.95;;;3.30;60.70;;;;;;4996719;28;20078;-80
2024/01/13 00:36:46;;;;;;;4.95;3.08;;;3.30;60.80;;;;;;4967858;28;20044;-80
2024/01/13 00:39:12;;;;;;;4.20;2.70;;;3.30;60.70;;;;;;4983324;28;20034;-80
2024/01/13 00:41:38;;;;;;;4.57;2.83;;;3.30;60.30;;;;;;4985262;28;20059;-79
2024/01/13 00:44:04;;;;;;;6.13;3.05;;;3.30;60.60;;;;;;4952080;28;20093;-80
2024/01/13 00:46:30;;;;;;;7.10;3.60;;;3.30;60.20;;;;;;4983425;28;20046;-81
2024/01/13 00:48:56;;;;;;;4.15;2.75;;;3.30;60.20;;;;;;4978867;28;20438;-80
2024/01/13 00:51:22;;;;;;;5.20;2.80;;;3.30;60.00;;;;;;4982741;28;20516;-78
2024/01/13 00:53:48;;;;;;;6.95;3.00;;;3.30;59.90;;;;;;4981326;28;20406;-82
2024/01/13 00:56:14;;;;;;;6.65;3.17;;;3.30;60.10;;;;;;4983132;28;20039;-79
2024/01/13 00:58:41;;;;;;;6.70;3.08;;;3.20;59.90;;;;;;4980572;28;20046;-81
2024/01/13 01:01:07;;;;;;;3.78;2.58;;;3.20;59.70;;;;;;4982953;28;20042;-82
2024/01/13 01:03:33;;;;;;;5.20;3.15;;;3.20;59.50;;;;;;4982812;28;20516;-81
2024/01/13 01:05:59;;;;;;;7.50;3.28;;;3.20;59.60;;;;;;4967294;28;20042;-81
2024/01/13 01:08:26;;;;;;;6.28;3.08;;;3.20;59.40;;;;;;4966938;28;21228;-80
2024/01/13 01:10:52;;;;;;;5.35;3.22;;;3.20;59.50;;;;;;4982547;28;20034;-80
2024/01/13 01:13:18;;;;;;;5.88;3.33;;;3.20;59.70;;;;;;4983351;28;20049;-80
2024/01/13 01:15:44;;;;;;;5.47;3.08;;;3.20;59.80;;;;;;4951945;28;20035;-80
2024/01/13 01:18:10;;;;;;;5.90;2.90;;;3.20;60.00;;;;;;4982674;28;20065;-80
2024/01/13 01:20:36;;;;;;;5.28;2.70;;;3.20;59.90;;;;;;4983605;28;20038;-79
2024/01/13 01:23:02;;;;;;;5.10;2.83;;;3.20;59.90;;;;;;4983136;28;20100;-80
2024/01/13 01:25:28;;;;;;;5.72;3.10;;;3.20;59.90;;;;;;4984094;28;20037;-80
2024/01/13 01:27:54;;;;;;;4.60;2.50;;;3.20;59.90;;;;;;4983559;28;20038;-80
2024/01/13 01:30:20;;;;;;;6.00;3.30;;;3.20;59.70;;;;;;4984109;28;20046;-79
2024/01/13 01:32:48;;;;;;;6.97;3.05;;;3.20;59.60;;;;;;4986955;28;20042;-79
2024/01/13 01:35:14;;;;;;;5.47;2.97;;;3.20;59.30;;;;;;4971732;28;20041;-79
2024/01/13 01:37:40;;;;;;;6.30;3.17;;;3.20;59.20;;;;;;4986150;28;20104;-80
2024/01/13 01:40:07;;;;;;;5.32;3.22;;;3.20;59.40;;;;;;4984510;28;20038;-80
2024/01/13 01:42:33;;;;;;;6.25;3.08;;;3.20;59.60;;;;;;4984986;28;20493;-80
2024/01/13 01:44:59;;;;;;;8.40;2.95;;;3.20;59.40;;;;;;4956159;28;20081;-80
2024/01/13 01:47:29;;;;;;;6.15;3.33;;;3.20;59.20;;;;;;4969630;28;20747;-80
2024/01/13 01:49:55;;;;;;;7.47;3.10;;;3.20;59.00;;;;;;4984925;28;20042;-80
2024/01/13 01:52:21;;;;;;;5.68;2.70;;;3.20;59.40;;;;;;4971008;28;20038;-80
2024/01/13 01:54:47;;;;;;;7.70;2.60;;;3.20;59.20;;;;;;4986356;28;20121;-79
2024/01/13 01:57:15;;;;;;;5.60;3.17;;;3.20;59.00;;;;;;4984009;28;20144;-79
2024/01/13 01:59:42;;;;;;;5.72;3.33;;;3.20;59.10;;;;;;4986649;28;20688;-78
2024/01/13 02:02:08;;;;;;;6.18;2.97;;;3.20;59.00;;;;;;4969817;28;20046;-78
2024/01/13 02:04:34;;;;;;;5.13;2.88;;;3.10;58.60;;;;;;4985694;28;20054;-80
2024/01/13 02:07:01;;;;;;;5.43;2.90;;;3.10;58.70;;;;;;4986109;28;20117;-80
2024/01/13 02:09:27;;;;;;;9.13;3.65;;;3.20;58.80;;;;;;4985590;28;20411;-80
2024/01/13 02:11:53;;;;;;;6.18;2.97;;;3.10;58.50;;;;;;4983925;28;20031;-79
2024/01/13 02:14:19;;;;;;;6.75;2.90;;;3.10;58.30;;;;;;4983715;28;20030;-79
2024/01/13 02:16:45;;;;;;;6.18;3.22;;;3.10;58.40;;;;;;4983176;28;20100;-80
2024/01/13 02:19:11;;;;;;;7.00;3.45;;;3.10;58.20;;;;;;4979316;28;20055;-80
2024/01/13 02:21:38;;;;;;;7.43;3.17;;;3.10;57.90;;;;;;4984830;28;20034;-78
2024/01/13 02:24:04;;;;;;;5.18;3.08;;;3.00;57.90;;;;;;4984073;28;20042;-78
2024/01/13 02:26:34;;;;;;;5.15;3.22;;;3.00;57.90;;;;;;4997019;28;20106;-78
2024/01/13 02:29:00;;;;;;;6.50;2.80;;;3.10;57.90;;;;;;4985286;28;20034;-78
2024/01/13 02:31:26;;;;;;;7.13;3.33;;;3.10;57.80;;;;;;4980907;28;20034;-78
2024/01/13 02:33:53;;;;;;;5.55;3.10;;;3.10;57.90;;;;;;4986185;28;20108;-78
2024/01/13 02:36:19;;;;;;;5.18;3.25;;;3.00;58.00;;;;;;4983939;28;20493;-78
2024/01/13 02:38:45;;;;;;;5.50;3.42;;;3.10;58.10;;;;;;4962707;28;20047;-79
2024/01/13 02:41:11;;;;;;;8.38;3.60;;;3.00;58.10;;;;;;4985392;28;20034;-80
2024/01/13 02:43:37;;;;;;;8.95;3.67;;;3.00;58.80;;;;;;4980974;28;20034;-79
2024/01/13 02:46:04;;;;;;;6.35;3.58;;;3.00;58.20;;;;;;4982282;28;20421;-79
2024/01/13 02:48:43;;;;;;;5.47;3.60;;;3.10;57.90;;;;;;4982983;28;20031;-79
2024/01/13 02:51:14;;;;;;;6.88;3.50;;;3.10;57.80;;;;;;4998820;28;20043;-80
2024/01/13 02:53:40;;;;;;;5.57;3.00;;;3.00;57.80;;;;;;4985349;28;20133;-77
2024/01/13 02:56:06;;;;;;;6.05;3.20;;;3.10;57.90;;;;;;4985727;28;20038;-79
2024/01/13 02:58:33;;;;;;;5.95;3.05;;;3.00;57.80;;;;;;4984207;28;20042;-77
2024/01/13 03:00:59;;;;;;;7.05;3.20;;;3.00;57.80;;;;;;4985180;28;20026;-80
2024/01/13 03:03:25;;;;;;;6.35;2.95;;;3.00;57.60;;;;;;4984625;28;20046;-77
2024/01/13 03:05:51;;;;;;;5.65;3.08;;;3.00;57.50;;;;;;4985804;28;20089;-78
2024/01/13 03:08:17;;;;;;;5.90;3.15;;;3.00;57.60;;;;;;4985168;28;20096;-78
2024/01/13 03:10:43;;;;;;;7.68;3.45;;;3.00;57.40;;;;;;4984339;28;20506;-79
2024/01/13 03:13:09;;;;;;;6.95;3.40;;;3.00;57.50;;;;;;4985910;28;20053;-78
2024/01/13 03:15:35;;;;;;;6.53;3.00;;;3.00;57.50;;;;;;4986543;28;20030;-80
2024/01/13 03:18:01;;;;;;;6.57;2.80;;;3.00;57.70;;;;;;4965537;28;20050;-81
2024/01/13 03:20:27;;;;;;;6.65;2.97;;;3.00;57.60;;;;;;4986162;28;20040;-79
2024/01/13 03:22:53;;;;;;;6.25;3.10;;;3.00;57.30;;;;;;5000935;28;20521;-79
2024/01/13 03:25:19;;;;;;;5.93;3.05;;;3.00;57.40;;;;;;4984613;28;20081;-79
2024/01/13 03:27:45;;;;;;;4.88;2.63;;;3.00;57.40;;;;;;4984599;28;20046;-79
2024/01/13 03:30:12;;;;;;;6.93;3.45;;;3.00;57.30;;;;;;4985513;28;20562;-79
2024/01/13 03:32:38;;;;;;;5.93;2.88;;;3.00;57.00;;;;;;4986189;28;20038;-79
2024/01/13 03:35:04;;;;;;;5.35;2.80;;;3.00;56.90;;;;;;4984951;28;20049;-79
2024/01/13 03:37:30;;;;;;;5.28;3.00;;;3.00;57.30;;;;;;4968985;28;20042;-78
2024/01/13 03:39:56;;;;;;;5.07;2.75;;;3.00;56.70;;;;;;4984811;28;20351;-78
2024/01/13 03:42:22;;;;;;;5.30;3.22;;;2.90;56.50;;;;;;4985026;28;20027;-78
2024/01/13 03:44:48;;;;;;;6.22;3.28;;;2.90;56.50;;;;;;4985283;28;20049;-78
2024/01/13 03:47:14;;;;;;;6.32;2.72;;;2.90;56.40;;;;;;4985425;28;20058;-78
2024/01/13 03:49:40;;;;;;;7.90;3.08;;;2.90;56.20;;;;;;4985305;28;20387;-78
2024/01/13 03:52:06;;;;;;;5.80;2.80;;;2.90;56.30;;;;;;4985219;28;20120;-78
2024/01/13 03:54:32;;;;;;;5.47;3.40;;;2.90;56.30;;;;;;4970499;28;20031;-78
2024/01/13 03:56:58;;;;;;;5.90;3.40;;;2.90;56.10;;;;;;4984237;28;20034;-78
2024/01/13 03:59:24;;;;;;;6.63;3.55;;;2.90;56.40;;;;;;4984078;28;20038;-78
2024/01/13 04:01:50;;;;;;;6.18;3.35;;;2.90;56.60;;;;;;4984484;28;20031;-79
2024/01/13 04:04:16;;;;;;;6.18;3.10;;;2.90;56.70;;;;;;4968632;28;20089;-77
2024/01/13 04:06:42;;;;;;;6.05;3.10;;;2.90;56.70;;;;;;4984554;28;21345;-79
2024/01/13 04:09:08;;;;;;;6.45;3.63;;;2.90;56.60;;;;;;4962659;28;20031;-78
2024/01/13 04:11:34;;;;;;;5.43;3.10;;;2.90;56.70;;;;;;4968782;28;20097;-77
2024/01/13 04:14:00;;;;;;;4.88;2.83;;;2.90;56.70;;;;;;4984203;28;20057;-78
2024/01/13 04:16:26;;;;;;;5.88;3.13;;;2.90;56.90;;;;;;4982534;28;20034;-78
2024/01/13 04:18:52;;;;;;;5.25;3.25;;;2.90;56.60;;;;;;4983884;28;20050;-78
2024/01/13 04:21:18;;;;;;;9.07;3.65;;;2.90;56.70;;;;;;4969186;28;20030;-79
2024/01/13 04:23:44;;;;;;;5.93;3.47;;;2.80;56.40;;;;;;4951950;28;20706;-80
2024/01/13 04:26:11;;;;;;;5.13;2.85;;;2.80;56.50;;;;;;4982654;28;20042;-81
2024/01/13 04:28:37;;;;;;;5.47;3.00;;;2.80;56.60;;;;;;4997479;28;20027;-80
2024/01/13 04:31:04;;;;;;;6.88;3.35;;;2.90;56.30;;;;;;4967794;28;20807;-79
2024/01/13 04:33:30;;;;;;;6.75;3.00;;;2.80;56.30;;;;;;4984968;28;20034;-80
2024/01/13 04:35:56;;;;;;;6.70;3.45;;;2.80;56.40;;;;;;4984874;28;20036;-80
2024/01/13 04:38:23;;;;;;;5.88;3.15;;;2.90;56.10;;;;;;4984588;28;20517;-82
2024/01/13 04:40:49;;;;;;;5.75;3.03;;;2.90;56.00;;;;;;4984833;28;20520;-80
2024/01/13 04:43:15;;;;;;;6.60;3.30;;;2.90;56.10;;;;;;4984207;28;20042;-81
2024/01/13 04:45:41;;;;;;;8.27;3.83;;;2.80;55.80;;;;;;4985726;28;20034;-81
2024/01/13 04:48:07;;;;;;;7.25;3.38;;;2.80;55.80;;;;;;4983809;28;20081;-79
2024/01/13 04:50:33;;;;;;;3.97;2.90;;;2.80;55.90;;;;;;4968264;28;20069;-81
2024/01/13 04:52:59;;;;;;;7.00;3.83;;;2.90;55.80;;;;;;4985109;28;20043;-81
2024/01/13 04:55:25;;;;;;;6.15;3.55;;;2.80;55.70;;;;;;4983924;28;20039;-82
2024/01/13 04:57:51;;;;;;;5.22;3.30;;;2.80;55.70;;;;;;4983447;28;20129;-81
2024/01/13 05:00:17;;;;;;;6.40;3.60;;;2.80;55.50;;;;;;4952894;28;20037;-80
2024/01/13 05:02:43;;;;;;;7.20;3.92;;;2.80;55.30;;;;;;4982459;28;20035;-82
2024/01/13 05:05:10;;;;;;;7.75;3.17;;;2.80;55.50;;;;;;4969840;28;20101;-81
2024/01/13 05:07:39;;;;;;;8.10;3.58;;;2.80;55.30;;;;;;4988020;28;20049;-81
2024/01/13 05:10:07;;;;;;;7.63;3.70;;;2.70;55.20;;;;;;4987565;28;20030;-81
2024/01/13 05:12:33;;;;;;;7.88;3.67;;;2.70;55.20;;;;;;4986964;28;20536;-81
2024/01/13 05:14:59;;;;;;;7.53;3.88;;;2.70;55.40;;;;;;4988572;28;20138;-79
2024/01/13 05:17:25;;;;;;;8.55;4.40;;;2.70;55.40;;;;;;4987356;28;20049;-80
2024/01/13 05:19:51;;;;;;;7.80;3.63;;;2.70;55.20;;;;;;4971172;28;20042;-79
2024/01/13 05:22:17;;;;;;;8.52;4.15;;;2.70;55.30;;;;;;4986474;28;20038;-80
2024/01/13 05:24:44;;;;;;;7.25;3.15;;;2.70;55.20;;;;;;4988054;28;20034;-81
2024/01/13 05:27:10;;;;;;;7.90;3.58;;;2.70;55.40;;;;;;4988662;28;20040;-80
2024/01/13 05:29:36;;;;;;;8.80;3.63;;;2.70;55.60;;;;;;4985955;28;20042;-80
2024/01/13 05:32:02;;;;;;;6.65;3.25;;;2.80;55.60;;;;;;4988154;28;20462;-79
2024/01/13 05:34:28;;;;;;;6.07;3.50;;;2.80;55.70;;;;;;4986714;28;20117;-80
2024/01/13 05:36:54;;;;;;;6.53;3.30;;;2.70;55.50;;;;;;5002750;28;20050;-81
2024/01/13 05:39:20;;;;;;;6.85;3.42;;;2.80;55.60;;;;;;4955379;28;20034;-81
2024/01/13 05:41:46;;;;;;;6.43;3.25;;;2.80;55.50;;;;;;4971112;28;20175;-81
2024/01/13 05:44:12;;;;;;;7.05;3.55;;;2.70;55.50;;;;;;4988538;28;20045;-80
2024/01/13 05:46:38;;;;;;;6.20;3.03;;;2.70;55.50;;;;;;4987034;28;20035;-79
2024/01/13 05:49:04;;;;;;;8.35;3.42;;;2.70;55.50;;;;;;4986348;28;20389;-80
2024/01/13 05:51:30;;;;;;;6.05;3.38;;;2.70;55.70;;;;;;5002670;28;20042;-80
2024/01/13 05:53:56;;;;;;;6.78;3.38;;;2.70;55.40;;;;;;4989214;28;20051;-81
2024/01/13 05:56:22;;;;;;;5.75;3.30;;;2.70;55.30;;;;;;4988427;28;20513;-79
2024/01/13 05:58:49;;;;;;;5.90;3.50;;;2.70;55.00;;;;;;4987043;28;20050;-79
2024/01/13 06:01:14;;;;;;;8.65;4.15;;;2.70;55.50;;;;;;4985862;28;20034;-78
2024/01/13 06:03:41;;;;;;;8.88;3.75;;;2.70;55.40;;;;;;4987074;28;20104;-79
2024/01/13 06:06:10;;;;;;;6.55;3.60;;;2.70;55.60;;;;;;4970131;28;20138;-79
2024/01/13 06:08:36;;;;;;;7.38;3.70;;;2.70;55.60;;;;;;4986314;28;20452;-80
2024/01/13 06:11:02;;;;;;;8.77;3.35;;;2.70;55.70;;;;;;4970079;28;20032;-85
2024/01/13 06:13:28;;;;;;;6.78;3.22;;;2.80;55.90;;;;;;4987280;28;20050;-77
2024/01/13 06:15:55;;;;;;;8.23;3.58;;;2.80;56.20;;;;;;4986491;28;20034;-79
2024/01/13 06:18:21;;;;;;;9.35;3.28;;;2.80;56.20;;;;;;4986226;28;20134;-78
2024/01/13 06:20:47;;;;;;;9.02;3.17;;;2.80;56.30;;;;;;4985353;28;20401;-75
2024/01/13 06:23:13;;;;;;;6.93;3.45;;;2.90;56.40;;;;;;4984890;28;20084;-78
2024/01/13 06:25:39;;;;;;;8.07;3.33;;;2.80;56.10;;;;;;4986956;28;20144;-78
2024/01/13 06:28:05;;;;;;;5.90;3.63;;;2.80;56.00;;;;;;4986272;28;20046;-77
2024/01/13 06:30:31;;;;;;;6.93;3.15;;;2.90;56.40;;;;;;4984399;28;20057;-78
2024/01/13 06:32:57;;;;;;;6.75;3.20;;;2.80;56.20;;;;;;4969340;28;20041;-81
2024/01/13 06:35:23;;;;;;;6.32;3.17;;;2.80;56.20;;;;;;4967986;28;20058;-79
2024/01/13 06:37:51;;;;;;;5.47;2.95;;;2.80;56.30;;;;;;4985998;28;20093;-79
2024/01/13 06:40:17;;;;;;;7.20;3.53;;;2.90;56.50;;;;;;4986398;28;20042;-80
2024/01/13 06:42:43;;;;;;;8.23;3.08;;;2.90;56.60;;;;;;4986703;28;20034;-79
2024/01/13 06:45:09;;;;;;;7.60;3.40;;;2.80;56.70;;;;;;4998456;28;20039;-81
2024/01/13 06:47:35;;;;;;;5.25;3.22;;;2.90;56.80;;;;;;4970840;28;20077;-79
2024/01/13 06:50:03;;;;;;;6.00;3.20;;;2.90;56.90;;;;;;4986283;28;20046;-79
2024/01/13 06:52:29;;;;;;;5.55;3.22;;;2.90;57.00;;;;;;4985246;28;20049;-79
2024/01/13 06:54:55;;;;;;;9.07;3.78;;;2.90;57.40;;;;;;4985527;28;20038;-79
2024/01/13 06:57:22;;;;;;;8.88;4.15;;;2.90;57.60;;;;;;4986918;28;20425;-81
2024/01/13 06:59:48;;;;;;;9.25;3.72;;;3.00;57.80;;;;;;4983965;28;20034;-79
2024/01/13 07:02:14;;;;;;;8.35;4.13;;;3.00;58.30;;;;;;4981275;28;20522;-84
2024/01/13 07:04:42;;;;;;;8.25;3.70;;;3.00;58.10;;;;;;4970281;28;20070;-80
2024/01/13 07:07:08;;;;;;;6.70;4.25;;;3.00;58.10;;;;;;4982923;28;20034;-80
2024/01/13 07:09:34;;;;;;;6.97;3.83;;;3.00;58.00;;;;;;4971459;28;20526;-83
2024/01/13 07:12:00;;;;;;;8.88;4.43;;;3.00;57.70;;;;;;4983499;28;20034;-78
2024/01/13 07:14:26;;;;;;;7.32;4.10;;;3.00;57.60;;;;;;4984579;28;20611;-78
2024/01/13 07:16:53;;;;;;;8.60;4.18;;;3.00;57.40;;;;;;4985306;28;20035;-82
2024/01/13 07:19:19;;;;;;;8.73;4.78;;;3.00;57.10;;;;;;4990316;28;20044;-84
2024/01/13 07:21:45;;;;;;;7.63;4.38;;;3.10;57.10;;;;;;4992453;28;20030;-82
2024/01/13 07:24:12;;;;;;;10.80;4.38;;;3.10;57.10;;;;;;4990791;28;20563;-81
2024/01/13 07:26:44;;;;;;;7.20;4.10;;;3.10;57.00;;;;;;4988959;28;20038;-83
2024/01/13 07:29:10;;;;;;;8.95;4.63;;;3.10;56.50;;;;;;4973380;28;20049;-82
2024/01/13 07:31:36;;;;;;;8.48;4.57;;;3.10;56.50;;;;;;4991473;28;20417;-83
2024/01/13 07:34:02;;;;;;;7.10;4.38;;;3.10;56.40;;;;;;4974253;28;20030;-83
2024/01/13 07:36:28;;;;;;;8.35;4.18;;;3.10;56.40;;;;;;4989694;28;20038;-81
2024/01/13 07:38:54;;;;;;;8.93;4.63;;;3.20;56.30;;;;;;4957589;28;20108;-86
2024/01/13 07:41:20;;;;;;;6.18;3.83;;;3.20;56.50;;;;;;4990513;28;20498;-81
2024/01/13 07:43:46;;;;;;;7.03;3.72;;;3.20;57.10;;;;;;4973699;28;20038;-83
2024/01/13 07:46:31;;;;;;;9.38;4.25;;;3.30;58.10;;;;;;4974313;28;20038;-79
2024/01/13 07:48:57;;;;;;;7.55;3.75;;;3.30;58.90;;;;;;4986702;28;20383;-80
2024/01/13 07:51:23;;;;;;;7.90;4.25;;;3.40;59.40;;;;;;4988427;28;20117;-80
2024/01/13 07:53:49;;;;;;;7.50;4.00;;;3.40;60.00;;;;;;4988960;28;20047;-79
2024/01/13 07:56:15;;;;;;;14.95;4.35;;;3.40;60.40;;;;;;4991295;28;20128;-81
2024/01/13 07:59:01;;;;;;;7.43;3.70;;;3.50;61.00;;;;;;4987049;28;20474;-78
2024/01/13 08:01:27;;;;;;;6.30;3.10;;;3.60;75.30;;;;;;4986130;28;20046;-80
2024/01/13 08:03:53;;;;;;;5.75;3.28;;;3.90;85.30;;;;;;4985088;28;20116;-80
2024/01/13 08:06:19;;;;;;;7.07;3.40;;;4.20;88.20;;;;;;4984985;28;20085;-80
2024/01/13 08:08:46;;;;;;;5.68;3.00;;;4.50;88.80;;;;;;4984666;28;20065;-80
2024/01/13 08:11:11;;;;;;;5.90;3.08;;;4.70;88.00;;;;;;4984463;28;20058;-77
2024/01/13 08:13:37;;;;;;;6.07;3.25;;;5.00;87.20;;;;;;4983358;28;20524;-80
2024/01/13 08:16:04;;;;;;;6.70;2.88;;;5.20;86.00;;;;;;4997216;28;20077;-79
2024/01/13 08:18:30;;;;;;;7.32;3.00;;;5.40;85.00;;;;;;4984668;28;20136;-79
2024/01/13 08:20:56;;;;;;;7.18;3.13;;;5.70;84.20;;;;;;4984046;28;20046;-78
2024/01/13 08:23:22;;;;;;;6.88;3.10;;;5.90;83.20;;;;;;4984988;28;20049;-80
2024/01/13 08:25:48;;;;;;;8.18;2.58;;;6.20;82.90;;;;;;4984143;28;20038;-79
2024/01/13 08:28:14;;;;;;;4.60;2.95;;;6.40;82.50;;;;;;4984957;28;20053;-81
2024/01/13 08:30:40;;;;;;;7.82;3.22;;;6.60;81.70;;;;;;4983674;28;20077;-81
2024/01/13 08:33:06;;;;;;;6.05;2.50;;;6.80;81.20;;;;;;4983673;28;20031;-78
2024/01/13 08:35:32;;;;;;;5.25;2.90;;;7.00;80.00;;;;;;4970282;28;20351;-79
2024/01/13 08:37:58;;;;;;;8.20;3.42;;;7.20;79.80;;;;;;4987694;28;20033;-79
2024/01/13 08:40:24;;;;;;;4.60;2.88;;;7.40;79.00;;;;;;4988547;28;20045;-78
2024/01/13 08:42:50;;;;;;;6.47;3.22;;;7.60;78.10;;;;;;4987175;28;20027;-78
2024/01/13 08:45:19;;;;;;;5.25;2.65;;;7.80;77.40;;;;;;4970817;28;20050;-76
2024/01/13 08:47:45;;;;;;;6.20;2.95;;;7.90;76.60;;;;;;4987234;28;20089;-80
2024/01/13 08:50:12;;;;;;;5.30;2.83;;;7.90;72.90;;;;;;4981975;28;20043;-80
2024/01/13 08:52:38;;;;;;;6.20;3.20;;;7.90;70.00;;;;;;4969271;28;20034;-79
2024/01/13 08:55:05;;;;;;;6.63;3.58;;;7.90;68.30;;;;;;4984180;28;20038;-80
2024/01/13 08:57:31;;;;;;;6.25;3.70;;;7.80;66.60;;;;;;4983327;28;20042;-80
2024/01/13 08:59:57;;;;;;;7.35;3.70;;;7.70;65.80;;;;;;5000189;28;20578;-81
2024/01/13 09:02:23;;;;;;;8.00;3.75;;;7.70;64.90;;;;;;4985640;28;20045;-79
2024/01/13 09:04:49;;;;;;;8.88;4.07;;;7.60;64.20;;;;;;4955493;28;20513;-84
2024/01/13 09:07:16;;;;;;;7.20;3.70;;;7.60;63.80;;;;;;4986773;28;20042;-83
2024/01/13 09:09:43;;;;;;;10.32;3.45;;;7.60;63.70;;;;;;4983904;28;20488;-84
2024/01/13 09:12:08;;;;;;;10.38;4.03;;;7.50;63.40;;;;;;4967989;28;20065;-86
2024/01/13 09:14:35;;;;;;;8.27;3.53;;;7.50;63.30;;;;;;4971502;28;20038;-86
2024/01/13 09:17:01;;;;;;;7.22;3.42;;;7.50;63.20;;;;;;4955819;28;20034;-85
2024/01/13 09:19:27;;;;;;;6.10;3.25;;;7.40;62.70;;;;;;4985038;28;20429;-85
2024/01/13 09:21:53;;;;;;;8.55;4.13;;;7.40;62.60;;;;;;4983089;28;20034;-81
2024/01/13 09:24:19;;;;;;;11.18;3.88;;;7.30;62.40;;;;;;4987288;28;20037;-81
2024/01/13 09:26:45;;;;;;;8.45;3.95;;;7.30;62.70;;;;;;4964207;28;20042;-79
2024/01/13 09:29:15;;;;;;;6.32;3.58;;;7.20;62.30;;;;;;4980746;28;20039;-84
2024/01/13 09:31:42;;;;;;;7.47;3.83;;;7.20;62.40;;;;;;4978626;28;20100;-82
2024/01/13 09:34:09;;;;;;;5.90;3.80;;;7.20;62.40;;;;;;4950847;28;20486;-80
2024/01/13 09:36:35;;;;;;;6.97;3.72;;;7.10;61.90;;;;;;4967882;28;20030;-80
2024/01/13 09:39:01;;;;;;;6.97;3.85;;;7.10;61.20;;;;;;4980198;28;20038;-85
2024/01/13 09:41:29;;;;;;;7.72;3.97;;;7.10;60.90;;;;;;4981243;28;20030;-79
2024/01/13 09:44:01;;;;;;;8.10;4.10;;;7.00;60.80;;;;;;4979372;28;20027;-81
2024/01/13 09:46:29;;;;;;;9.35;4.15;;;7.00;60.70;;;;;;4979646;28;20042;-77
2024/01/13 09:48:56;;;;;;;9.82;4.50;;;7.00;60.80;;;;;;4979987;28;20055;-77
2024/01/13 09:51:23;;;;;;;9.70;4.47;;;7.00;60.80;;;;;;4965605;28;20050;-79
2024/01/13 09:53:55;;;;;;;9.95;4.75;;;6.90;60.80;;;;;;4982769;28;20036;-78
2024/01/13 09:56:30;;;;;;;8.60;4.40;;;6.90;60.70;;;;;;4998851;28;20089;-80
2024/01/13 09:58:56;;;;;;;11.65;4.85;;;6.80;60.60;;;;;;4983863;28;20039;-78
2024/01/13 10:01:23;;;;;;;9.88;4.72;;;6.80;60.80;;;;;;4984971;28;20041;-79
2024/01/13 10:03:49;;;;;;;8.02;4.90;;;6.80;60.70;;;;;;4985917;28;20045;-79
2024/01/13 10:06:16;;;;;;;10.63;5.53;;;6.70;60.60;;;;;;4984911;28;20030;-79
2024/01/13 10:08:43;;;;;;;11.00;5.20;;;6.70;60.50;;;;;;4970872;28;20070;-80
2024/01/13 10:11:09;;;;;;;11.65;5.70;;;6.70;60.40;;;;;;4982404;28;20034;-79
2024/01/13 10:13:36;;;;;;;8.77;4.90;;;6.60;60.20;;;;;;4981662;28;20506;-79
2024/01/13 10:16:02;;;;;;;11.45;5.40;;;6.60;60.20;;;;;;4983661;28;20034;-77
2024/01/13 10:18:31;;;;;;;9.23;5.13;;;6.60;60.40;;;;;;4982373;28;20034;-77
2024/01/13 10:20:57;;;;;;;8.07;4.95;;;6.60;60.30;;;;;;4997893;28;20044;-81
2024/01/13 10:23:24;;;;;;;9.73;5.57;;;6.50;60.10;;;;;;4969802;28;20034;-80
2024/01/13 10:25:50;;;;;;;8.38;4.68;;;6.50;60.20;;;;;;4998445;28;20347;-83
2024/01/13 10:28:16;;;;;;;11.43;4.97;;;6.50;60.20;;;;;;4983414;28;20125;-81
2024/01/13 10:30:43;;;;;;;8.05;4.70;;;6.50;60.10;;;;;;4984540;28;20644;-82
2024/01/13 10:33:10;;;;;;;8.93;4.97;;;6.40;59.90;;;;;;4983584;28;20062;-80
2024/01/13 10:35:37;;;;;;;9.25;4.55;;;6.40;59.90;;;;;;4992863;28;20053;-81
2024/01/13 10:38:03;;;;;;;7.80;4.97;;;6.40;60.00;;;;;;4992427;28;20034;-82
2024/01/13 10:40:29;;;;;;;8.15;4.50;;;6.40;60.10;;;;;;4989068;28;20035;-81
2024/01/13 10:42:56;;;;;;;10.90;4.97;;;6.40;60.00;;;;;;4992988;28;20019;-82
2024/01/13 10:45:24;;;;;;;7.75;5.28;;;6.30;60.00;;;;;;4991048;28;20112;-81
2024/01/13 10:47:58;;;;;;;8.77;5.07;;;6.30;60.00;;;;;;4990839;28;20512;-83
2024/01/13 10:50:25;;;;;;;8.90;4.53;;;6.30;60.10;;;;;;4985696;28;20042;-83
2024/01/13 10:53:03;;;;;;;12.73;4.80;;;6.30;60.40;;;;;;4990120;28;20137;-80
2024/01/13 10:55:30;;;;;;;8.35;4.97;;;6.30;60.90;;;;;;4993490;28;20046;-80
2024/01/13 10:58:00;;;;;;;10.10;4.95;;;6.30;60.80;;;;;;4991996;28;20026;-80
2024/01/13 11:00:28;;;;;;;10.95;5.35;;;6.30;61.10;;;;;;4994076;28;20046;-80
2024/01/13 11:02:55;;;;;;;9.55;5.30;;;6.20;61.40;;;;;;4990344;28;20065;-80
2024/01/13 11:05:25;;;;;;;12.18;5.75;;;6.30;61.40;;;;;;4988393;28;20041;-80
2024/01/13 11:07:51;;;;;;;13.43;5.38;;;6.30;61.40;;;;;;4988509;28;20397;-79
2024/01/13 11:10:22;;;;;;;12.88;5.85;;;6.20;61.30;;;;;;4991920;28;20038;-80
2024/01/13 11:12:56;;;;;;;10.63;5.57;;;6.30;61.30;;;;;;4990461;28;20038;-81
2024/01/13 11:15:38;;;;;;;8.88;4.85;;;6.20;61.30;;;;;;4976292;28;20054;-77
2024/01/13 11:18:05;;;;;;;10.93;5.43;;;6.20;61.40;;;;;;4982288;28;20073;-79
2024/01/13 11:21:04;;;;;;;10.70;5.50;;;6.20;61.60;;;;;;4981603;28;20116;-78
2024/01/13 11:23:51;;;;;;;8.27;5.10;;;6.20;61.70;;;;;;4980679;28;20523;-78
2024/01/13 11:26:27;;;;;;;8.95;5.20;;;6.20;61.80;;;;;;4980517;28;20045;-79
2024/01/13 11:28:53;;;;;;;;;;;6.10;62.00;;;;;;4979455;28;20064;-79
2024/01/13 11:31:46;;;;;;;8.57;4.95;;;6.10;61.80;;;;;;4979063;28;20480;-80
2024/01/13 11:34:15;;;;;;;9.27;4.65;;;6.10;61.90;;;;;;4978255;28;20033;-77
2024/01/13 11:36:47;;;;;;;8.43;5.05;;;6.10;61.90;;;;;;4980029;28;20038;-78
2024/01/13 11:39:15;;;;;;;10.63;5.40;;;6.10;61.80;;;;;;4980742;28;20117;-79
2024/01/13 11:41:46;;;;;;;9.43;4.70;;;6.10;61.80;;;;;;4983271;28;20034;-78
2024/01/13 11:44:22;;;;;;;9.27;4.82;;;6.00;61.80;;;;;;4982402;28;20113;-79
2024/01/13 11:47:07;;;;;;;9.90;4.55;;;6.10;62.10;;;;;;4979646;28;20031;-79
2024/01/13 11:49:38;;;;;;;10.20;5.07;;;6.00;62.20;;;;;;4980322;28;20037;-77
2024/01/13 11:52:13;;;;;;;11.15;4.93;;;6.10;62.20;;;;;;4993700;28;20898;-77
2024/01/13 11:54:41;;;;;;;7.97;4.43;;;6.00;62.20;;;;;;4980935;28;20534;-77
2024/01/13 11:57:13;;;;;;;9.27;5.10;;;6.00;62.30;;;;;;4981428;28;20035;-78
2024/01/13 11:59:40;;;;;;;9.60;5.05;;;6.00;62.20;;;;;;4980084;28;20058;-77
2024/01/13 12:02:06;;;;;;;10.00;5.40;;;6.00;62.40;;;;;;4977690;28;20383;-77
2024/01/13 12:04:34;;;;;;;11.48;5.38;;;6.00;62.80;;;;;;4978869;28;20503;-77
2024/01/13 12:07:01;;;;;;;7.70;4.50;;;6.00;62.90;;;;;;4979998;28;20108;-77
2024/01/13 12:09:28;;;;;;;8.48;4.55;;;6.00;63.20;;;;;;4967209;28;20497;-79
2024/01/13 12:12:02;;;;;;;8.68;4.53;;;6.00;63.20;;;;;;4965455;28;20027;-78
2024/01/13 12:14:30;;;;;;;7.45;4.80;;;6.00;63.10;;;;;;4980023;28;20034;-78
2024/01/13 12:16:58;;;;;;;8.75;4.63;;;6.00;63.20;;;;;;4980020;28;20035;-76
2024/01/13 12:19:36;;;;;;;8.93;5.00;;;6.00;63.60;;;;;;4980334;28;20544;-76
2024/01/13 12:22:06;;;;;;;8.82;4.95;;;6.00;62.90;;;;;;4981131;28;20034;-77
2024/01/13 12:24:33;;;;;;;8.73;5.10;;;6.00;62.90;;;;;;4981212;28;20034;-77
2024/01/13 12:27:00;;;;;;;7.68;4.97;;;6.00;62.60;;;;;;4981997;28;20089;-79
2024/01/13 12:29:33;;;;;;;9.10;4.55;;;6.00;62.90;;;;;;4979308;28;20041;-77
2024/01/13 12:32:00;;;;;;;9.95;4.72;;;6.00;62.50;;;;;;4977235;28;20034;-76
2024/01/13 12:34:27;;;;;;;7.65;4.45;;;5.90;62.60;;;;;;4979174;28;20045;-79
2024/01/13 12:36:55;;;;;;;7.30;4.90;;;5.90;62.40;;;;;;4979752;28;20041;-76
2024/01/13 12:39:22;;;;;;;8.68;4.65;;;5.90;62.20;;;;;;4980739;28;20370;-76
2024/01/13 12:41:48;;;;;;;9.43;4.57;;;5.90;62.40;;;;;;4977483;28;20030;-77
2024/01/13 12:44:18;;;;;;;8.48;4.55;;;5.90;62.50;;;;;;4979059;28;20038;-78
2024/01/13 12:46:44;;;;;;;8.68;4.93;;;5.90;62.50;;;;;;4978539;28;20788;-79
2024/01/13 12:49:14;;;;;;;7.63;5.00;;;5.90;62.30;;;;;;4965920;28;20034;-76
2024/01/13 12:51:45;;;;;;;9.52;5.00;;;5.90;62.30;;;;;;4976290;28;20239;-76
2024/01/13 12:54:14;;;;;;;9.15;4.90;;;5.90;61.90;;;;;;4961249;28;20097;-76